createdAt,value
2022-11-24T00:01:19.079Z,35.20
2022-11-24T00:03:52.411Z,40.28
2022-11-24T00:06:19.515Z,40.60
2022-11-24T00:08:47.249Z,36.92
2022-11-24T00:11:20.905Z,27.48
2022-11-24T00:13:48.697Z,36.85
2022-11-24T00:16:21.473Z,40.53
2022-11-24T00:18:50.107Z,37.55
2022-11-24T00:21:18.703Z,35.13
2022-11-24T00:23:47.142Z,35.45
2022-11-24T00:26:19.715Z,38.30
2022-11-24T00:28:49.149Z,40.20
2022-11-24T00:31:21.737Z,33.72
2022-11-24T00:33:52.116Z,35.55
2022-11-24T00:36:20.244Z,44.28
2022-11-24T00:38:48.144Z,41.55
2022-11-24T00:41:15.056Z,46.47
2022-11-24T00:43:42.244Z,39.97
2022-11-24T00:46:09.645Z,44.22
2022-11-24T00:48:36.982Z,36.63
2022-11-24T00:51:07.144Z,33.25
2022-11-24T00:53:34.382Z,37.97
2022-11-24T00:56:04.053Z,38.08
2022-11-24T00:58:32.225Z,33.90
2022-11-24T01:01:07.865Z,41.33
2022-11-24T01:03:35.599Z,47.35
2022-11-24T01:06:15.060Z,37.00
2022-11-24T01:08:43.061Z,47.33
2022-11-24T01:11:17.451Z,37.08
2022-11-24T01:13:46.975Z,43.75
2022-11-24T01:16:15.385Z,39.08
2022-11-24T01:18:42.787Z,44.90
2022-11-24T01:21:10.394Z,42.42
2022-11-24T01:23:38.168Z,42.63
2022-11-24T01:26:07.089Z,44.65
2022-11-24T01:28:35.275Z,48.65
2022-11-24T01:31:05.922Z,41.17
2022-11-24T01:33:34.527Z,54.58
2022-11-24T01:36:02.442Z,46.75
2022-11-24T01:38:30.373Z,42.90
2022-11-24T01:41:02.172Z,40.38
2022-11-24T01:43:29.467Z,52.78
2022-11-24T01:45:58.077Z,43.58
2022-11-24T01:48:30.451Z,50.45
2022-11-24T01:51:26.874Z,47.63
2022-11-24T01:54:00.469Z,46.65
2022-11-24T01:56:28.803Z,39.33
2022-11-24T01:59:00.683Z,44.90
2022-11-24T02:01:29.368Z,40.92
2022-11-24T02:03:57.733Z,40.65
2022-11-24T02:06:29.365Z,43.88
2022-11-24T02:09:24.127Z,31.13
2022-11-24T02:11:53.817Z,40.35
2022-11-24T02:14:23.866Z,40.10
2022-11-24T02:16:53.101Z,38.33
2022-11-24T02:19:37.716Z,34.85
2022-11-24T02:22:05.201Z,37.53
2022-11-24T02:24:47.391Z,41.55
2022-11-24T02:27:14.400Z,33.58
2022-11-24T02:29:42.019Z,30.15
2022-11-24T02:32:11.416Z,34.10
2022-11-24T02:34:38.715Z,37.45
2022-11-24T02:37:05.697Z,35.25
2022-11-24T02:39:33.199Z,34.90
2022-11-24T02:42:05.282Z,34.58
2022-11-24T02:44:37.902Z,28.00
2022-11-24T02:47:07.284Z,26.77
2022-11-24T02:49:34.795Z,28.20
2022-11-24T02:52:02.012Z,28.88
2022-11-24T02:54:29.341Z,30.15
2022-11-24T02:56:56.726Z,32.15
2022-11-24T02:59:24.178Z,28.38
2022-11-24T03:01:51.163Z,29.33
2022-11-24T03:04:18.382Z,24.65
2022-11-24T03:06:45.455Z,30.95
2022-11-24T03:09:12.857Z,32.17
2022-11-24T03:11:40.035Z,34.35
2022-11-24T03:14:07.667Z,29.95
2022-11-24T03:16:34.922Z,27.00
2022-11-24T03:19:02.541Z,25.98
2022-11-24T03:21:29.877Z,27.45
2022-11-24T03:23:57.076Z,30.58
2022-11-24T03:26:26.362Z,31.60
2022-11-24T03:28:55.426Z,26.83
2022-11-24T03:31:23.118Z,29.63
2022-11-24T03:33:50.474Z,30.38
2022-11-24T03:36:17.699Z,31.98
2022-11-24T03:38:45.631Z,27.02
2022-11-24T03:41:12.925Z,31.48
2022-11-24T03:43:43.807Z,23.33
2022-11-24T03:46:12.486Z,29.92
2022-11-24T03:48:39.805Z,25.23
2022-11-24T03:51:06.986Z,29.85
2022-11-24T03:53:34.456Z,34.25
2022-11-24T03:56:02.224Z,28.08
2022-11-24T03:58:30.273Z,29.10
2022-11-24T04:00:58.007Z,33.95
2022-11-24T04:03:26.265Z,30.80
2022-11-24T04:05:53.101Z,30.75
2022-11-24T04:08:20.467Z,28.60
2022-11-24T04:10:52.403Z,27.95
2022-11-24T04:13:22.262Z,25.90
2022-11-24T04:15:49.414Z,31.30
2022-11-24T04:18:16.678Z,25.23
2022-11-24T04:20:43.805Z,27.27
2022-11-24T04:23:11.497Z,31.52
2022-11-24T04:25:38.873Z,28.05
2022-11-24T04:28:06.699Z,30.63
2022-11-24T04:30:34.004Z,27.52
2022-11-24T04:33:01.134Z,31.75
2022-11-24T04:35:28.465Z,28.83
2022-11-24T04:37:55.866Z,27.35
2022-11-24T04:40:22.763Z,36.70
2022-11-24T04:42:56.845Z,33.92
2022-11-24T04:45:23.907Z,29.65
2022-11-24T04:47:51.187Z,26.58
2022-11-24T04:50:18.600Z,25.60
2022-11-24T04:52:46.071Z,40.25
2022-11-24T04:55:13.239Z,25.92
2022-11-24T04:57:40.835Z,35.45
2022-11-24T05:00:09.257Z,22.67
2022-11-24T05:02:36.886Z,35.92
2022-11-24T05:05:04.610Z,34.67
2022-11-24T05:07:32.060Z,28.17
2022-11-24T05:10:17.925Z,22.40
2022-11-24T05:12:51.045Z,29.35
2022-11-24T05:15:18.317Z,30.17
2022-11-24T05:17:45.447Z,26.45
2022-11-24T05:20:12.347Z,32.75
2022-11-24T05:22:39.858Z,30.08
2022-11-24T05:25:06.964Z,33.50
2022-11-24T05:27:34.307Z,24.98
2022-11-24T05:30:01.413Z,22.02
2022-11-24T05:32:28.834Z,30.85
2022-11-24T05:34:56.907Z,29.48
2022-11-24T05:37:25.767Z,24.17
2022-11-24T05:39:54.671Z,27.40
2022-11-24T05:42:46.239Z,25.50
2022-11-24T05:45:20.191Z,27.75
2022-11-24T05:47:49.014Z,28.35
2022-11-24T05:50:18.626Z,22.60
2022-11-24T05:52:46.099Z,26.75
2022-11-24T05:55:15.108Z,26.13
2022-11-24T05:57:42.663Z,24.63
2022-11-24T06:00:10.879Z,27.88
2022-11-24T06:05:08.575Z,26.83
2022-11-24T06:07:35.884Z,29.42
2022-11-24T06:10:03.751Z,21.33
2022-11-24T06:12:31.170Z,28.15
2022-11-24T06:14:57.977Z,26.35
2022-11-24T06:17:25.470Z,23.55
2022-11-24T06:19:52.477Z,27.65
2022-11-24T06:22:19.726Z,25.02
2022-11-24T06:24:47.271Z,25.73
2022-11-24T06:27:14.695Z,24.83
2022-11-24T06:29:42.356Z,25.60
2022-11-24T06:32:10.098Z,30.75
2022-11-24T06:34:37.543Z,29.00
2022-11-24T06:37:05.150Z,35.28
2022-11-24T06:39:32.344Z,28.67
2022-11-24T06:42:00.341Z,28.75
2022-11-24T06:44:27.447Z,29.48
2022-11-24T06:46:55.153Z,24.80
2022-11-24T06:49:22.305Z,32.60
2022-11-24T06:51:50.513Z,31.73
2022-11-24T06:54:21.410Z,24.30
2022-11-24T06:56:48.821Z,30.50
2022-11-24T06:59:20.325Z,28.50
2022-11-24T07:01:47.773Z,25.25
2022-11-24T07:04:16.173Z,34.97
2022-11-24T07:06:44.290Z,32.72
2022-11-24T07:09:13.548Z,25.67
2022-11-24T07:11:41.188Z,33.55
2022-11-24T07:14:08.869Z,36.40
2022-11-24T07:16:36.892Z,36.17
2022-11-24T07:19:03.966Z,37.05
2022-11-24T07:21:31.448Z,32.97
2022-11-24T07:23:58.868Z,41.75
2022-11-24T07:26:27.704Z,39.83
2022-11-24T07:28:55.118Z,40.05
2022-11-24T07:31:25.207Z,36.97
2022-11-24T07:33:54.416Z,39.25
2022-11-24T07:36:23.446Z,35.75
2022-11-24T07:38:50.997Z,41.00
2022-11-24T07:41:19.741Z,40.13
2022-11-24T07:43:47.559Z,37.45
2022-11-24T07:46:17.551Z,36.20
2022-11-24T07:48:45.312Z,32.20
2022-11-24T07:51:13.665Z,40.20
2022-11-24T07:53:41.066Z,30.92
2022-11-24T07:56:10.111Z,37.40
2022-11-24T07:58:37.802Z,35.15
2022-11-24T08:01:32.153Z,41.38
2022-11-24T08:03:59.145Z,34.53
2022-11-24T08:06:36.195Z,42.95
2022-11-24T08:09:07.236Z,34.47
2022-11-24T08:11:34.888Z,35.28
2022-11-24T08:14:01.875Z,34.55
2022-11-24T08:16:29.418Z,35.33
2022-11-24T08:18:56.414Z,40.70
2022-11-24T08:21:24.895Z,38.72
2022-11-24T08:23:56.659Z,38.55
2022-11-24T08:26:25.256Z,39.63
2022-11-24T08:28:58.971Z,35.10
2022-11-24T08:31:32.943Z,35.03
2022-11-24T08:34:01.639Z,33.70
2022-11-24T08:36:30.152Z,34.05
2022-11-24T08:38:59.347Z,35.65
2022-11-24T08:41:28.798Z,30.67
2022-11-24T08:43:56.643Z,31.63
2022-11-24T08:46:24.317Z,39.10
2022-11-24T08:48:54.214Z,41.67
2022-11-24T08:51:25.131Z,35.65
2022-11-24T08:54:01.144Z,38.17
2022-11-24T08:56:31.311Z,32.17
2022-11-24T08:58:59.298Z,34.97
2022-11-24T09:01:27.369Z,32.45
2022-11-24T09:03:54.565Z,34.25
2022-11-24T09:06:25.151Z,32.00
2022-11-24T09:08:54.617Z,42.05
2022-11-24T09:11:23.091Z,37.53
2022-11-24T09:13:50.500Z,36.17
2022-11-24T09:16:23.346Z,29.10
2022-11-24T09:19:02.498Z,37.38
2022-11-24T09:21:33.692Z,27.75
2022-11-24T09:24:00.558Z,27.60
2022-11-24T09:26:33.493Z,34.67
2022-11-24T09:29:01.886Z,27.85
2022-11-24T09:31:35.942Z,32.35
2022-11-24T09:34:22.358Z,26.73
2022-11-24T09:36:51.725Z,42.00
2022-11-24T09:39:18.733Z,37.30
2022-11-24T09:42:14.868Z,25.58
2022-11-24T09:45:11.080Z,36.08
2022-11-24T09:47:41.267Z,33.22
2022-11-24T09:50:24.242Z,39.08
2022-11-24T09:53:03.748Z,36.70
2022-11-24T09:55:42.853Z,29.67
2022-11-24T09:58:49.170Z,36.20
2022-11-24T10:01:30.758Z,28.33
2022-11-24T10:04:05.649Z,41.08
2022-11-24T10:06:58.716Z,28.35
2022-11-24T10:09:32.929Z,33.22
2022-11-24T10:12:24.065Z,32.17
2022-11-24T10:15:10.115Z,35.45
2022-11-24T10:17:43.530Z,27.33
2022-11-24T10:20:23.166Z,32.58
2022-11-24T10:23:17.237Z,35.63
2022-11-24T10:25:57.546Z,37.78
2022-11-24T10:28:32.488Z,42.38
2022-11-24T10:31:17.681Z,35.35
2022-11-24T10:33:45.341Z,36.17
2022-11-24T10:36:20.503Z,38.03
2022-11-24T10:39:05.517Z,34.35
2022-11-24T10:41:58.025Z,51.35
2022-11-24T10:44:25.472Z,35.50
2022-11-24T10:46:53.045Z,33.45
2022-11-24T10:49:25.269Z,35.08
2022-11-24T10:52:15.314Z,31.88
2022-11-24T10:55:00.016Z,41.72
2022-11-24T10:57:36.520Z,36.55
2022-11-24T11:00:24.044Z,44.25
2022-11-24T11:03:11.524Z,34.20
2022-11-24T11:05:43.147Z,33.65
2022-11-24T11:08:20.950Z,40.45
2022-11-24T11:11:30.313Z,40.90
2022-11-24T11:14:03.798Z,32.10
2022-11-24T11:16:46.162Z,30.42
2022-11-24T11:22:25.139Z,32.13
2022-11-24T11:25:10.679Z,37.40
2022-11-24T11:27:39.754Z,36.28
2022-11-24T11:36:11.329Z,32.47
2022-11-24T11:38:40.671Z,35.60
2022-11-24T11:41:18.979Z,33.10
2022-11-24T11:43:50.583Z,27.63
2022-11-24T11:46:17.948Z,37.40
2022-11-24T11:48:48.146Z,38.20
2022-11-24T11:51:31.406Z,34.28
2022-11-24T11:54:07.750Z,31.45
2022-11-24T11:56:46.552Z,38.60
2022-11-24T11:59:16.722Z,38.33
2022-11-24T12:02:08.061Z,29.50
2022-11-24T12:04:57.151Z,29.60
2022-11-24T12:07:54.622Z,38.13
2022-11-24T12:10:42.402Z,32.75
2022-11-24T12:13:30.620Z,36.40
2022-11-24T12:16:08.255Z,38.65
2022-11-24T12:18:58.472Z,31.73
2022-11-24T12:21:34.306Z,37.95
2022-11-24T12:24:14.951Z,37.63
2022-11-24T12:27:43.373Z,30.77
2022-11-24T12:30:18.628Z,34.25
2022-11-24T12:33:11.876Z,28.08
2022-11-24T12:36:03.824Z,32.55
2022-11-24T12:38:55.645Z,29.17
2022-11-24T12:42:00.314Z,26.10
2022-11-24T12:45:09.961Z,33.25
2022-11-24T12:48:04.713Z,31.40
2022-11-24T12:50:37.697Z,33.28
2022-11-24T12:53:04.951Z,30.45
2022-11-24T12:55:34.429Z,30.08
2022-11-24T12:58:13.657Z,28.23
2022-11-24T13:00:51.891Z,31.20
2022-11-24T13:03:32.742Z,34.40
2022-11-24T13:06:33.901Z,36.85
2022-11-24T13:09:12.943Z,30.33
2022-11-24T13:11:42.802Z,30.80
2022-11-24T13:14:13.584Z,36.97
2022-11-24T13:17:27.524Z,35.80
2022-11-24T13:19:41.589Z,34.17
2022-11-24T13:22:10.615Z,39.17
2022-11-24T13:24:39.695Z,37.05
2022-11-24T13:27:16.195Z,38.05
2022-11-24T13:29:48.953Z,36.63
2022-11-24T13:32:19.167Z,36.38
2022-11-24T13:34:55.644Z,30.83
2022-11-24T13:37:31.459Z,32.83
2022-11-24T13:40:13.311Z,34.30
2022-11-24T13:42:56.496Z,33.92
2022-11-24T13:45:39.311Z,43.95
2022-11-24T13:48:22.231Z,40.50
2022-11-24T13:50:50.052Z,36.70
2022-11-24T13:53:35.210Z,39.97
2022-11-24T13:56:08.155Z,39.30
2022-11-24T13:58:40.759Z,41.75
2022-11-24T14:01:13.024Z,30.55
2022-11-24T14:07:01.171Z,36.10
2022-11-24T14:09:52.069Z,35.25
2022-11-24T14:12:23.875Z,46.15
2022-11-24T14:14:53.173Z,38.85
2022-11-24T14:17:27.604Z,46.78
2022-11-24T14:19:56.759Z,38.10
2022-11-24T14:22:36.577Z,43.80
2022-11-24T14:25:05.583Z,41.90
2022-11-24T14:27:36.961Z,32.08
2022-11-24T14:30:09.907Z,38.35
2022-11-24T14:32:39.881Z,35.00
2022-11-24T14:35:28.125Z,37.97
2022-11-24T14:37:56.415Z,43.80
2022-11-24T14:40:40.127Z,42.80
2022-11-24T14:43:19.135Z,43.63
2022-11-24T14:46:02.455Z,55.20
2022-11-24T14:48:37.219Z,41.65
2022-11-24T14:51:13.190Z,44.50
2022-11-24T14:53:45.554Z,52.90
2022-11-24T14:56:36.149Z,53.03
2022-11-24T14:59:17.338Z,56.30
2022-11-24T15:01:44.461Z,55.33
2022-11-24T15:07:27.044Z,50.28
2022-11-24T15:10:00.871Z,50.80
2022-11-24T15:12:41.372Z,55.72
2022-11-24T15:15:14.625Z,48.03
2022-11-24T15:17:57.450Z,56.65
2022-11-24T15:20:45.694Z,46.88
2022-11-24T15:23:26.190Z,54.42
2022-11-24T15:26:16.754Z,62.40
2022-11-24T15:28:46.148Z,47.60
2022-11-24T15:31:14.495Z,50.60
2022-11-24T15:33:42.323Z,52.47
2022-11-24T15:36:11.952Z,57.88
2022-11-24T15:38:38.848Z,59.20
2022-11-24T15:41:18.213Z,48.15
2022-11-24T15:43:45.503Z,52.92
2022-11-24T15:46:13.183Z,57.78
2022-11-24T15:48:40.151Z,55.10
2022-11-24T15:51:13.890Z,44.22
2022-11-24T15:53:54.058Z,52.28
2022-11-24T15:56:25.466Z,44.15
2022-11-24T15:58:54.346Z,53.95
2022-11-24T16:01:24.075Z,54.55
2022-11-24T16:03:51.060Z,50.67
2022-11-24T16:06:24.524Z,49.45
2022-11-24T16:08:53.491Z,52.75
2022-11-24T16:11:21.840Z,53.92
2022-11-24T16:13:53.345Z,46.53
2022-11-24T16:16:23.324Z,48.67
2022-11-24T16:18:50.675Z,48.85
2022-11-24T16:21:18.245Z,53.83
2022-11-24T16:23:46.605Z,40.42
2022-11-24T16:26:13.928Z,49.95
2022-11-24T16:28:40.987Z,43.72
2022-11-24T16:31:08.494Z,45.72
2022-11-24T16:33:38.670Z,52.80
2022-11-24T16:36:06.454Z,39.47
2022-11-24T16:38:33.500Z,45.92
2022-11-24T16:41:00.810Z,42.25
2022-11-24T16:43:29.359Z,47.22
2022-11-24T16:46:08.684Z,45.15
2022-11-24T16:48:37.148Z,42.50
2022-11-24T16:51:10.108Z,53.80
2022-11-24T16:53:37.550Z,42.15
2022-11-24T16:56:05.430Z,41.15
2022-11-24T16:58:32.825Z,51.10
2022-11-24T17:01:07.962Z,49.40
2022-11-24T17:03:37.514Z,46.03
2022-11-24T17:06:07.257Z,48.85
2022-11-24T17:08:36.068Z,42.53
2022-11-24T17:11:08.229Z,48.90
2022-11-24T17:16:07.264Z,42.78
2022-11-24T17:18:34.928Z,59.03
2022-11-24T17:21:07.727Z,47.97
2022-11-24T17:23:36.282Z,47.08
2022-11-24T17:26:10.608Z,52.35
2022-11-24T17:28:38.443Z,48.92
2022-11-24T17:31:10.461Z,46.38
2022-11-24T17:33:37.290Z,45.33
2022-11-24T17:36:06.771Z,44.28
2022-11-24T17:38:35.177Z,50.25
2022-11-24T17:41:02.787Z,52.47
2022-11-24T17:43:29.786Z,51.15
2022-11-24T17:46:01.029Z,56.95
2022-11-24T17:48:29.066Z,46.70
2022-11-24T17:51:03.531Z,48.80
2022-11-24T17:53:31.601Z,56.83
2022-11-24T17:56:00.106Z,49.50
2022-11-24T17:58:28.586Z,64.43
2022-11-24T18:00:56.811Z,75.10
2022-11-24T18:03:25.720Z,55.35
2022-11-24T18:05:52.899Z,53.45
2022-11-24T18:08:20.323Z,67.60
2022-11-24T18:10:47.731Z,55.25
2022-11-24T18:13:33.797Z,66.50
2022-11-24T18:16:04.273Z,64.72
2022-11-24T18:18:31.326Z,59.72
2022-11-24T18:21:00.973Z,58.78
2022-11-24T18:23:30.021Z,74.55
2022-11-24T18:26:02.740Z,74.55
2022-11-24T18:28:30.368Z,62.75
2022-11-24T18:31:02.593Z,56.28
2022-11-24T18:33:30.005Z,72.20
2022-11-24T18:36:02.061Z,69.75
2022-11-24T18:38:29.493Z,64.05
2022-11-24T18:40:59.394Z,68.57
2022-11-24T18:43:29.389Z,62.00
2022-11-24T18:45:56.976Z,74.28
2022-11-24T18:48:25.797Z,59.92
2022-11-24T18:50:54.843Z,62.13
2022-11-24T18:53:24.548Z,69.13
2022-11-24T18:56:06.637Z,66.20
2022-11-24T18:58:35.584Z,67.88
2022-11-24T19:01:16.978Z,57.97
2022-11-24T19:03:48.583Z,87.20
2022-11-24T19:06:19.758Z,72.30
2022-11-24T19:08:48.124Z,71.65
2022-11-24T19:11:28.419Z,86.10
2022-11-24T19:13:57.063Z,76.55
2022-11-24T19:16:25.000Z,72.45
2022-11-24T19:18:56.869Z,72.43
2022-11-24T19:21:23.810Z,71.18
2022-11-24T19:23:50.937Z,73.63
2022-11-24T19:26:18.290Z,64.05
2022-11-24T19:28:45.607Z,66.88
2022-11-24T19:31:14.485Z,57.45
2022-11-24T19:33:42.446Z,61.85
2022-11-24T19:36:19.152Z,70.00
2022-11-24T19:38:55.286Z,59.97
2022-11-24T19:41:24.709Z,64.65
2022-11-24T19:43:56.416Z,62.90
2022-11-24T19:46:28.032Z,87.53
2022-11-24T19:48:59.394Z,58.38
2022-11-24T19:51:30.756Z,62.83
2022-11-24T19:53:58.931Z,56.13
2022-11-24T19:56:28.664Z,60.50
2022-11-24T19:58:56.450Z,50.90
2022-11-24T20:01:29.189Z,56.35
2022-11-24T20:03:59.151Z,58.72
2022-11-24T20:06:28.662Z,56.00
2022-11-24T20:08:57.997Z,46.72
2022-11-24T20:11:25.270Z,55.13
2022-11-24T20:13:52.509Z,53.35
2022-11-24T20:16:29.673Z,53.40
2022-11-24T20:18:59.243Z,53.58
2022-11-24T20:21:31.206Z,48.05
2022-11-24T20:23:59.560Z,59.58
2022-11-24T20:26:32.250Z,58.60
2022-11-24T20:29:00.395Z,54.95
2022-11-24T20:31:33.923Z,54.50
2022-11-24T20:34:02.533Z,58.42
2022-11-24T20:36:31.670Z,59.28
2022-11-24T20:39:00.708Z,68.55
2022-11-24T20:41:30.477Z,51.50
2022-11-24T20:44:00.768Z,59.42
2022-11-24T20:46:30.543Z,62.13
2022-11-24T20:48:58.207Z,61.10
2022-11-24T20:51:31.591Z,53.03
2022-11-24T20:54:01.378Z,58.63
2022-11-24T20:56:31.338Z,50.53
2022-11-24T20:58:59.156Z,53.33
2022-11-24T21:01:30.136Z,60.75
2022-11-24T21:03:59.337Z,54.13
2022-11-24T21:06:28.210Z,52.75
2022-11-24T21:09:00.396Z,47.97
2022-11-24T21:11:30.040Z,55.47
2022-11-24T21:13:57.114Z,53.45
2022-11-24T21:16:29.771Z,56.03
2022-11-24T21:18:59.304Z,60.65
2022-11-24T21:21:33.399Z,58.20
2022-11-24T21:24:01.912Z,48.75
2022-11-24T21:26:29.355Z,49.95
2022-11-24T21:28:57.374Z,56.53
2022-11-24T21:31:24.678Z,57.00
2022-11-24T21:33:53.482Z,49.20
2022-11-24T21:36:23.272Z,48.70
2022-11-24T21:38:55.739Z,55.22
2022-11-24T21:41:25.664Z,53.75
2022-11-24T21:43:55.515Z,65.60
2022-11-24T21:46:23.593Z,56.17
2022-11-24T21:48:50.896Z,56.67
2022-11-24T21:51:20.771Z,68.38
2022-11-24T21:53:48.341Z,59.00
2022-11-24T21:56:20.474Z,62.67
2022-11-24T21:58:58.031Z,54.80
2022-11-24T22:01:28.121Z,58.85
2022-11-24T22:03:56.336Z,58.55
2022-11-24T22:06:24.117Z,57.90
2022-11-24T22:08:51.108Z,52.30
2022-11-24T22:11:23.160Z,57.00
2022-11-24T22:13:51.014Z,48.67
2022-11-24T22:16:21.212Z,56.78
2022-11-24T22:18:49.307Z,58.90
2022-11-24T22:21:23.789Z,51.55
2022-11-24T22:23:52.596Z,60.40
2022-11-24T22:26:22.968Z,57.47
2022-11-24T22:28:51.178Z,63.00
2022-11-24T22:31:20.891Z,65.43
2022-11-24T22:33:48.844Z,60.55
2022-11-24T22:36:17.660Z,56.15
2022-11-24T22:38:44.581Z,54.53
2022-11-24T22:41:14.504Z,67.60
2022-11-24T22:43:42.932Z,63.33
2022-11-24T22:46:15.982Z,54.05
2022-11-24T22:48:45.174Z,67.60
2022-11-24T22:51:34.255Z,67.15
2022-11-24T22:54:03.832Z,69.10
2022-11-24T22:56:32.632Z,67.93
2022-11-24T22:59:00.947Z,59.67
2022-11-24T23:01:31.609Z,68.07
2022-11-24T23:03:58.480Z,65.88
2022-11-24T23:06:29.580Z,56.85
2022-11-24T23:08:58.533Z,66.15
2022-11-24T23:11:37.170Z,63.97
2022-11-24T23:14:05.562Z,60.38
2022-11-24T23:16:32.956Z,74.55
2022-11-24T23:19:00.184Z,70.20
2022-11-24T23:21:29.818Z,65.55
2022-11-24T23:23:58.847Z,63.75
2022-11-24T23:26:35.408Z,66.18
2022-11-24T23:29:02.623Z,55.30
2022-11-24T23:31:30.253Z,75.95
2022-11-24T23:33:59.035Z,78.15
2022-11-24T23:36:26.513Z,62.47
2022-11-24T23:38:54.581Z,72.15
2022-11-24T23:41:24.689Z,56.55
2022-11-24T23:43:52.474Z,59.50
2022-11-24T23:46:22.146Z,70.93
2022-11-24T23:48:51.326Z,65.68
2022-11-24T23:51:18.357Z,62.50
2022-11-24T23:53:45.982Z,71.10
2022-11-24T23:56:19.347Z,70.45
2022-11-24T23:58:46.889Z,62.75
